This is the latest recevied weather packets stored in our database for station/object W5HKR. If no packets are shown the sender has not sent any weather packets the latest 1 day(s).
| Time | Temp. | Humidity | Pressure | Rain* | Wind** | Luminosity | Snow |
|---|---|---|---|---|---|---|---|
| 1778041106 | 18.33° C | 91% | 990.6 hPa | 0 mm | 4.47 m/s, 265° | - | - |
| 1778040806 | 24.44° C | 89% | 980.3 hPa | 0 mm | 4.47 m/s, 274° | - | - |
| 1778040237 | 18.33° C | 91% | 990.6 hPa | 0 mm | 4.47 m/s, 269° | - | - |
| 1778040206 | 18.33° C | 91% | 990.6 hPa | 0 mm | 5.36 m/s, 269° | - | - |
| 1778039906 | 24.44° C | 88% | 979.7 hPa | 0 mm | 4.47 m/s, 272° | - | - |
| 1778039157 | 24.44° C | 88% | 980 hPa | 0 mm | 5.36 m/s, 268° | - | - |
| 1778039005 | 18.33° C | 91% | 990.6 hPa | 0 mm | 5.36 m/s, 271° | - | - |
| 1778038707 | 25° C | 87% | 979.5 hPa | 0 mm | 5.36 m/s, 268° | - | - |
| 1778038407 | 18.33° C | 91% | 990.6 hPa | 0 mm | 4.47 m/s, 265° | - | - |
| 1778038106 | 25° C | 87% | 979.3 hPa | 0 mm | 4.47 m/s, 262° | - | - |
| 1778038075 | 18.33° C | 91% | 990.6 hPa | 0 mm | 4.47 m/s, 263° | - | - |
| 1778037805 | 25° C | 86% | 979.7 hPa | 0 mm | 4.47 m/s, 267° | - | - |
| 1778037505 | 25° C | 86% | 979.3 hPa | 0 mm | 5.81 m/s, 270° | - | - |
| 1778037204 | 18.33° C | 91% | 990.6 hPa | 0 mm | 5.36 m/s, 264° | - | - |
| 1778036997 | 25.56° C | 85% | 979.9 hPa | 0 mm | 6.26 m/s, 280° | - | - |
| 1778036905 | 25.56° C | 85% | 979.6 hPa | 0 mm | 5.81 m/s, 272° | - | - |
| 1778036605 | 18.33° C | 91% | 990.6 hPa | 0 mm | 5.36 m/s, 271° | - | - |
| 1778036304 | 18.33° C | 91% | 990.6 hPa | 0 mm | 4.47 m/s, 268° | - | - |
| 1778035916 | 25.56° C | 84% | 978.7 hPa | 0 mm | 5.36 m/s, 271° | - | - |
| 1778035406 | 18.33° C | 91% | 990.6 hPa | 0 mm | 6.26 m/s, 272° | - | - |
| 1778035105 | 18.33° C | 91% | 990.6 hPa | 0 mm | 5.36 m/s, 267° | - | - |
| 1778034837 | 18.33° C | 91% | 990.6 hPa | 0 mm | 4.47 m/s, 266° | - | - |
| 1778034806 | 18.33° C | 91% | 990.6 hPa | 0 mm | 4.47 m/s, 265° | - | - |
| 1778034506 | 26.11° C | 82% | 979.3 hPa | 0 mm | 4.47 m/s, 269° | - | - |
| 1778034206 | 18.33° C | 91% | 990.6 hPa | 0 mm | 5.36 m/s, 270° | - | - |
* Rain latest hour (hover to see other rain measurements)
** Current wind speed in m/s (hover to see current wind gust speed)